Time,TemperatureF,DewpointF,PressureIn,WindDirection,WindDirectionDegrees,WindSpeedMPH,WindSpeedGustMPH,Humidity,HourlyPrecipIn,Conditions,Clouds,dailyrainin,SolarRadiationWatts/m^2,SoftwareType,DateUTC
2013-06-27 00:02:00,77.0,74.2,29.73,WSW,238,0.0,0.0,91,0.00,RA,,0.00,0.0,WeatherDisplay:10.37,2013-06-27 05:02:00,
2013-06-27 00:07:00,76.9,74.1,29.73,WSW,238,0.0,0.0,91,0.00,RA,,0.00,0.0,WeatherDisplay:10.37,2013-06-27 05:07:00,
2013-06-27 00:12:00,76.8,74.0,29.74,WSW,238,0.0,0.0,91,0.00,BKN,,0.00,0.0,WeatherDisplay:10.37,2013-06-27 05:12:00,
2013-06-27 00:17:00,76.7,73.9,29.74,WSW,238,0.0,0.0,91,0.00,BKN,,0.00,0.0,WeatherDisplay:10.37,2013-06-27 05:17:00,
2013-06-27 00:22:00,76.5,73.7,29.74,WSW,238,0.0,0.0,91,0.00,BKN,,0.00,0.0,WeatherDisplay:10.37,2013-06-27 05:22:00,
2013-06-27 00:27:00,76.4,73.9,29.74,WSW,238,0.0,0.0,92,0.00,BKN,,0.00,0.0,WeatherDisplay:10.37,2013-06-27 05:27:00,
2013-06-27 00:32:00,76.3,73.8,29.74,WSW,238,0.0,0.0,92,0.00,BKN,,0.00,0.0,WeatherDisplay:10.37,2013-06-27 05:32:00,
2013-06-27 00:37:00,76.2,73.7,29.74,WSW,238,0.0,0.0,92,0.00,BKN,,0.00,0.0,WeatherDisplay:10.37,2013-06-27 05:37:00,
2013-06-27 00:42:00,76.2,73.7,29.74,WSW,238,0.0,0.0,92,0.00,BKN,,0.00,0.0,WeatherDisplay:10.37,2013-06-27 05:42:00,
2013-06-27 00:47:00,76.2,73.7,29.74,WSW,238,0.0,0.0,92,0.00,BKN,,0.00,0.0,WeatherDisplay:10.37,2013-06-27 05:47:00,
2013-06-27 00:52:00,76.1,73.6,29.74,WSW,238,0.0,0.0,92,0.00,BKN,,0.00,0.0,WeatherDisplay:10.37,2013-06-27 05:52:00,
2013-06-27 00:57:00,76.2,74.0,29.74,WSW,238,0.0,0.0,93,0.00,BKN,,0.00,0.0,WeatherDisplay:10.37,2013-06-27 05:57:00,
2013-06-27 01:02:00,76.2,74.0,29.74,WSW,238,0.0,0.0,93,0.00,BKN,,0.00,0.0,WeatherDisplay:10.37,2013-06-27 06:02:00,
2013-06-27 01:07:00,76.2,74.0,29.74,WSW,238,0.0,0.0,93,0.00,BKN,,0.00,0.0,WeatherDisplay:10.37,2013-06-27 06:07:00,
2013-06-27 01:12:00,76.1,73.9,29.74,WSW,238,0.0,0.0,93,0.00,BKN,,0.00,0.0,WeatherDisplay:10.37,2013-06-27 06:12:00,
2013-06-27 01:17:00,76.0,73.8,29.74,WSW,238,0.0,0.0,93,0.00,BKN,,0.00,0.0,WeatherDisplay:10.37,2013-06-27 06:17:00,
2013-06-27 01:22:00,75.9,73.7,29.74,WSW,238,0.0,0.0,93,0.00,BKN,,0.00,0.0,WeatherDisplay:10.37,2013-06-27 06:22:00,
2013-06-27 01:27:00,75.7,73.5,29.74,WSW,238,0.0,0.0,93,0.00,BKN,,0.00,0.0,WeatherDisplay:10.37,2013-06-27 06:27:00,
2013-06-27 01:32:00,75.6,73.4,29.74,WSW,238,0.0,0.0,93,0.00,BKN,,0.00,0.0,WeatherDisplay:10.37,2013-06-27 06:32:00,
2013-06-27 01:37:00,75.6,73.4,29.74,WSW,238,0.0,0.0,93,0.00,BKN,,0.00,0.0,WeatherDisplay:10.37,2013-06-27 06:37:00,
2013-06-27 01:42:00,75.5,73.7,29.73,WSW,238,0.0,0.0,94,0.00,BKN,,0.00,0.0,WeatherDisplay:10.37,2013-06-27 06:42:00,
2013-06-27 01:47:00,75.4,73.6,29.73,WSW,238,0.0,0.0,94,0.00,BKN,,0.00,0.0,WeatherDisplay:10.37,2013-06-27 06:47:00,
2013-06-27 01:52:00,75.4,73.6,29.73,WSW,238,0.0,0.0,94,0.00,BKN,,0.00,0.0,WeatherDisplay:10.37,2013-06-27 06:52:00,
2013-06-27 01:57:00,75.3,73.5,29.74,WSW,238,0.0,0.0,94,0.00,BKN,,0.00,0.0,WeatherDisplay:10.37,2013-06-27 06:57:00,
2013-06-27 02:02:00,75.2,73.4,29.73,WSW,238,0.0,0.0,94,0.00,BKN,,0.00,0.0,WeatherDisplay:10.37,2013-06-27 07:02:00,
2013-06-27 02:07:00,75.1,73.3,29.74,WSW,238,0.0,0.0,94,0.00,BKN,,0.00,0.0,WeatherDisplay:10.37,2013-06-27 07:07:00,
2013-06-27 02:12:00,75.1,73.3,29.74,WSW,238,0.0,0.0,94,0.00,BKN,,0.00,0.0,WeatherDisplay:10.37,2013-06-27 07:12:00,
2013-06-27 02:17:00,75.0,73.2,29.74,WSW,238,0.0,0.0,94,0.00,BKN,,0.00,0.0,WeatherDisplay:10.37,2013-06-27 07:17:00,
2013-06-27 02:22:00,74.9,73.1,29.74,WSW,238,0.0,0.0,94,0.00,BKN,,0.00,0.0,WeatherDisplay:10.37,2013-06-27 07:22:00,
2013-06-27 02:27:00,74.9,73.1,29.74,WSW,238,0.0,0.0,94,0.00,BKN,,0.00,0.0,WeatherDisplay:10.37,2013-06-27 07:27:00,
2013-06-27 02:32:00,74.8,73.0,29.74,WSW,238,0.0,0.0,94,0.00,BKN,,0.00,0.0,WeatherDisplay:10.37,2013-06-27 07:32:00,
2013-06-27 02:37:00,74.7,73.2,29.74,WSW,238,0.0,0.0,95,0.00,BKN,,0.00,0.0,WeatherDisplay:10.37,2013-06-27 07:37:00,
2013-06-27 02:42:00,74.7,73.2,29.74,WSW,238,0.0,0.0,95,0.00,BKN,,0.00,0.0,WeatherDisplay:10.37,2013-06-27 07:42:00,
2013-06-27 02:47:00,74.6,73.1,29.74,WSW,238,0.0,0.0,95,0.00,BKN,,0.00,0.0,WeatherDisplay:10.37,2013-06-27 07:47:00,
2013-06-27 02:52:00,74.6,73.1,29.75,WSW,238,0.0,0.0,95,0.00,BKN,,0.00,0.0,WeatherDisplay:10.37,2013-06-27 07:52:00,
2013-06-27 02:57:00,74.6,73.1,29.74,WSW,238,0.0,0.0,95,0.00,BKN,,0.00,0.0,WeatherDisplay:10.37,2013-06-27 07:57:00,
2013-06-27 03:02:00,74.5,73.0,29.74,WSW,238,0.0,0.0,95,0.00,BKN,,0.00,0.0,WeatherDisplay:10.37,2013-06-27 08:02:00,
2013-06-27 03:07:00,74.4,72.9,29.74,WSW,238,0.0,0.0,95,0.00,BKN,,0.00,0.0,WeatherDisplay:10.37,2013-06-27 08:07:00,
2013-06-27 03:12:00,74.4,72.9,29.75,WSW,238,0.0,0.0,95,0.00,BKN,,0.00,0.0,WeatherDisplay:10.37,2013-06-27 08:12:00,
2013-06-27 03:17:00,74.3,72.8,29.75,WSW,238,0.0,0.0,95,0.00,BKN,,0.00,0.0,WeatherDisplay:10.37,2013-06-27 08:17:00,
2013-06-27 03:23:00,74.2,72.7,29.75,WSW,238,0.0,0.0,95,0.00,BKN,,0.00,0.0,WeatherDisplay:10.37,2013-06-27 08:23:00,
2013-06-27 03:28:00,74.1,72.6,29.75,WSW,238,0.0,0.0,95,0.00,BKN,,0.00,0.0,WeatherDisplay:10.37,2013-06-27 08:28:00,
2013-06-27 03:33:00,74.1,72.6,29.75,WSW,238,0.0,0.0,95,0.00,BKN,,0.00,0.0,WeatherDisplay:10.37,2013-06-27 08:33:00,
2013-06-27 03:38:00,74.0,72.5,29.74,WSW,238,0.0,0.0,95,0.00,BKN,,0.00,0.0,WeatherDisplay:10.37,2013-06-27 08:38:00,
2013-06-27 03:43:00,73.9,72.4,29.74,WSW,238,0.0,0.0,95,0.00,BKN,,0.00,0.0,WeatherDisplay:10.37,2013-06-27 08:43:00,
2013-06-27 03:48:00,73.8,72.3,29.75,WSW,238,0.0,0.0,95,0.00,BKN,,0.00,0.0,WeatherDisplay:10.37,2013-06-27 08:48:00,
2013-06-27 03:53:00,73.6,72.1,29.75,WSW,238,0.0,0.0,95,0.00,BKN,,0.00,0.0,WeatherDisplay:10.37,2013-06-27 08:53:00,
2013-06-27 03:58:00,73.5,72.0,29.75,WSW,238,0.0,0.0,95,0.00,BKN,,0.00,0.0,WeatherDisplay:10.37,2013-06-27 08:58:00,
2013-06-27 04:03:00,73.4,71.9,29.75,WSW,238,0.0,0.0,95,0.00,BKN,,0.00,0.0,WeatherDisplay:10.37,2013-06-27 09:03:00,
2013-06-27 04:08:00,73.3,71.8,29.76,WSW,238,0.0,0.0,95,0.00,BKN,,0.00,0.0,WeatherDisplay:10.37,2013-06-27 09:08:00,
2013-06-27 04:13:00,73.2,71.7,29.76,WSW,238,0.0,0.0,95,0.00,BKN,,0.00,0.0,WeatherDisplay:10.37,2013-06-27 09:13:00,
2013-06-27 04:18:00,73.1,71.6,29.76,WSW,238,0.0,0.0,95,0.00,BKN,,0.00,0.0,WeatherDisplay:10.37,2013-06-27 09:18:00,
2013-06-27 04:23:00,73.0,71.5,29.76,WSW,238,0.0,0.0,95,0.00,BKN,,0.00,0.0,WeatherDisplay:10.37,2013-06-27 09:23:00,
2013-06-27 04:28:00,72.9,71.4,29.76,WSW,238,0.0,0.0,95,0.00,BKN,,0.00,0.0,WeatherDisplay:10.37,2013-06-27 09:28:00,
2013-06-27 04:33:00,72.8,71.3,29.76,WSW,238,0.0,0.0,95,0.00,BKN,,0.00,0.0,WeatherDisplay:10.37,2013-06-27 09:33:00,
2013-06-27 04:38:00,72.7,71.2,29.76,WSW,238,0.0,0.0,95,0.00,BKN,,0.00,0.0,WeatherDisplay:10.37,2013-06-27 09:38:00,
2013-06-27 04:43:00,72.6,71.1,29.76,WSW,238,0.0,0.0,95,0.00,BKN,,0.00,0.0,WeatherDisplay:10.37,2013-06-27 09:43:00,
2013-06-27 04:48:00,72.4,70.9,29.76,WSW,238,0.0,0.0,95,0.00,BKN,,0.00,0.0,WeatherDisplay:10.37,2013-06-27 09:48:00,
2013-06-27 04:53:00,72.2,70.7,29.76,WSW,238,0.0,0.0,95,0.00,BKN,,0.00,0.0,WeatherDisplay:10.37,2013-06-27 09:53:00,
2013-06-27 04:58:00,72.1,70.6,29.76,WSW,238,0.0,0.0,95,0.00,BKN,,0.00,0.0,WeatherDisplay:10.37,2013-06-27 09:58:00,
2013-06-27 05:03:00,72.0,70.5,29.76,WSW,238,0.0,0.0,95,0.00,BKN,,0.00,0.0,WeatherDisplay:10.37,2013-06-27 10:03:00,
2013-06-27 05:08:00,72.0,70.5,29.77,WSW,238,0.0,0.0,95,0.00,BKN,,0.00,0.0,WeatherDisplay:10.37,2013-06-27 10:08:00,
2013-06-27 05:13:00,71.9,70.1,29.77,SW,225,0.0,0.0,94,0.00,BKN,,0.00,0.0,WeatherDisplay:10.37,2013-06-27 10:13:00,
2013-06-27 05:18:00,71.8,70.0,29.77,SW,218,0.0,0.0,94,0.00,BKN,,0.00,0.0,WeatherDisplay:10.37,2013-06-27 10:18:00,
2013-06-27 05:23:00,71.7,70.2,29.77,SW,226,0.0,0.0,95,0.00,BKN,,0.00,0.0,WeatherDisplay:10.37,2013-06-27 10:23:00,
2013-06-27 05:28:00,71.7,69.9,29.77,SW,226,0.0,0.0,94,0.00,BKN,,0.00,0.0,WeatherDisplay:10.37,2013-06-27 10:28:00,
2013-06-27 05:33:00,71.6,69.8,29.77,SW,226,0.0,0.0,94,0.00,BKN,,0.00,5.0,WeatherDisplay:10.37,2013-06-27 10:33:00,
2013-06-27 05:38:00,71.5,69.7,29.78,SW,226,0.0,0.0,94,0.00,BKN,,0.00,9.0,WeatherDisplay:10.37,2013-06-27 10:38:00,
2013-06-27 05:43:00,71.5,69.7,29.78,SW,226,0.0,0.0,94,0.00,BKN,,0.00,14.0,WeatherDisplay:10.37,2013-06-27 10:43:00,
2013-06-27 05:48:00,71.5,69.7,29.78,SW,226,0.0,0.0,94,0.00,BKN,,0.00,26.0,WeatherDisplay:10.37,2013-06-27 10:48:00,
2013-06-27 05:53:00,71.4,69.6,29.78,SW,226,0.0,0.0,94,0.00,BKN,,0.00,40.0,WeatherDisplay:10.37,2013-06-27 10:53:00,
2013-06-27 05:58:00,71.5,69.7,29.78,SW,226,0.0,0.0,94,0.00,SCT,,0.00,53.0,WeatherDisplay:10.37,2013-06-27 10:58:00,
2013-06-27 06:03:00,71.5,69.7,29.78,SW,226,0.0,0.0,94,0.00,BKN,,0.00,58.0,WeatherDisplay:10.37,2013-06-27 11:03:00,
2013-06-27 06:08:00,71.5,69.7,29.78,SW,226,0.0,0.0,94,0.00,SCT,,0.00,77.0,WeatherDisplay:10.37,2013-06-27 11:08:00,
2013-06-27 06:13:00,71.6,69.8,29.78,SW,226,0.0,0.0,94,0.00,SCT,,0.00,90.0,WeatherDisplay:10.37,2013-06-27 11:13:00,
2013-06-27 06:18:00,71.7,69.9,29.79,SW,226,0.0,0.0,94,0.00,SCT,,0.00,93.0,WeatherDisplay:10.37,2013-06-27 11:18:00,
2013-06-27 06:23:00,71.9,70.1,29.79,SW,226,0.0,0.0,94,0.00,SCT,,0.00,102.0,WeatherDisplay:10.37,2013-06-27 11:23:00,
2013-06-27 06:28:00,71.9,69.8,29.79,SW,226,0.0,0.0,93,0.00,SCT,,0.00,121.0,WeatherDisplay:10.37,2013-06-27 11:28:00,
2013-06-27 06:33:00,72.0,69.9,29.79,SW,226,0.0,0.0,93,0.00,SCT,,0.00,135.0,WeatherDisplay:10.37,2013-06-27 11:33:00,
2013-06-27 06:38:00,72.1,70.0,29.79,SW,226,0.0,0.0,93,0.00,SCT,,0.00,151.0,WeatherDisplay:10.37,2013-06-27 11:38:00,
2013-06-27 06:43:00,72.3,70.2,29.79,SW,226,0.0,0.0,93,0.00,SCT,,0.00,162.0,WeatherDisplay:10.37,2013-06-27 11:43:00,
2013-06-27 06:48:00,72.4,70.3,29.79,SW,226,0.0,0.0,93,0.00,SCT,,0.00,176.0,WeatherDisplay:10.37,2013-06-27 11:48:00,
2013-06-27 06:53:00,72.6,70.1,29.79,SW,226,0.0,0.0,92,0.00,SCT,,0.00,141.0,WeatherDisplay:10.37,2013-06-27 11:53:00,
2013-06-27 06:58:00,72.8,70.3,29.79,SW,226,0.0,0.0,92,0.00,SCT,,0.00,211.0,WeatherDisplay:10.37,2013-06-27 11:58:00,
2013-06-27 07:03:00,73.0,70.5,29.80,SW,226,0.0,0.0,92,0.00,SCT,,0.00,229.0,WeatherDisplay:10.37,2013-06-27 12:03:00,
2013-06-27 07:08:00,73.3,70.5,29.80,SW,225,3.5,3.5,91,0.00,SCT,,0.00,244.0,WeatherDisplay:10.37,2013-06-27 12:08:00,
2013-06-27 07:13:00,73.6,70.8,29.80,SW,225,0.0,0.0,91,0.00,SCT,,0.00,258.0,WeatherDisplay:10.37,2013-06-27 12:13:00,
2013-06-27 07:18:00,73.9,70.5,29.81,SW,225,0.0,0.5,89,0.00,SCT,,0.00,274.0,WeatherDisplay:10.37,2013-06-27 12:18:00,
2013-06-27 07:23:00,74.1,70.6,29.81,SW,225,0.0,0.0,89,0.00,SCT,,0.00,290.0,WeatherDisplay:10.37,2013-06-27 12:23:00,
2013-06-27 07:28:00,74.4,70.6,29.81,SW,225,0.0,0.0,88,0.00,SCT,,0.00,304.0,WeatherDisplay:10.37,2013-06-27 12:28:00,
2013-06-27 07:33:00,74.7,70.6,29.81,SW,225,0.0,0.0,87,0.00,SCT,,0.00,320.0,WeatherDisplay:10.37,2013-06-27 12:33:00,
2013-06-27 07:38:00,74.9,70.8,29.81,SW,225,0.0,0.3,87,0.00,SCT,,0.00,339.0,WeatherDisplay:10.37,2013-06-27 12:38:00,
2013-06-27 07:43:00,75.3,70.8,29.81,SW,225,0.0,0.0,86,0.00,FEW,,0.00,357.0,WeatherDisplay:10.37,2013-06-27 12:43:00,
2013-06-27 07:48:00,75.5,70.7,29.81,SW,225,0.0,0.0,85,0.00,FEW,,0.00,374.0,WeatherDisplay:10.37,2013-06-27 12:48:00,
2013-06-27 07:53:00,75.8,71.0,29.81,SW,225,0.0,0.0,85,0.00,FEW,,0.00,390.0,WeatherDisplay:10.37,2013-06-27 12:53:00,
2013-06-27 07:58:00,76.1,70.9,29.81,SW,236,0.0,0.6,84,0.00,FEW,,0.00,404.0,WeatherDisplay:10.37,2013-06-27 12:58:00,
2013-06-27 08:03:00,76.4,71.2,29.81,SW,236,0.0,0.7,84,0.00,FEW,,0.00,420.0,WeatherDisplay:10.37,2013-06-27 13:03:00,
2013-06-27 08:08:00,76.7,71.1,29.81,SW,236,2.3,2.3,83,0.00,FEW,,0.00,436.0,WeatherDisplay:10.37,2013-06-27 13:08:00,
2013-06-27 08:13:00,77.0,71.4,29.82,WSW,242,0.0,0.0,83,0.00,FEW,,0.00,452.0,WeatherDisplay:10.37,2013-06-27 13:13:00,
2013-06-27 08:18:00,77.3,71.4,29.82,WSW,242,0.0,0.8,82,0.00,FEW,,0.00,468.0,WeatherDisplay:10.37,2013-06-27 13:18:00,
2013-06-27 08:23:00,77.6,71.7,29.81,WSW,242,4.6,4.6,82,0.00,FEW,,0.00,485.0,WeatherDisplay:10.37,2013-06-27 13:23:00,
2013-06-27 08:28:00,77.9,72.0,29.81,WSW,242,0.0,0.0,82,0.00,FEW,,0.00,503.0,WeatherDisplay:10.37,2013-06-27 13:28:00,
2013-06-27 08:33:00,78.2,71.9,29.81,WSW,242,0.0,0.0,81,0.00,FEW,,0.00,520.0,WeatherDisplay:10.37,2013-06-27 13:33:00,
2013-06-27 08:38:00,78.5,71.8,29.81,WSW,242,1.2,1.2,80,0.00,FEW,,0.00,534.0,WeatherDisplay:10.37,2013-06-27 13:38:00,
2013-06-27 08:44:00,78.7,72.0,29.81,WSW,242,2.3,0.0,80,0.00,FEW,,0.00,550.0,WeatherDisplay:10.37,2013-06-27 13:44:00,
2013-06-27 08:49:00,78.9,72.2,29.81,WSW,242,0.0,0.0,80,0.00,FEW,,0.00,564.0,WeatherDisplay:10.37,2013-06-27 13:49:00,
2013-06-27 08:54:00,79.2,72.1,29.81,WSW,242,4.6,4.6,79,0.00,FEW,,0.00,580.0,WeatherDisplay:10.37,2013-06-27 13:54:00,
2013-06-27 08:59:00,79.4,71.9,29.81,WSW,246,3.5,3.5,78,0.00,FEW,,0.00,598.0,WeatherDisplay:10.37,2013-06-27 13:59:00,
2013-06-27 09:04:00,79.6,71.8,29.80,WSW,246,0.0,0.0,77,0.00,FEW,,0.00,612.0,WeatherDisplay:10.37,2013-06-27 14:04:00,
2013-06-27 09:09:00,79.8,72.3,29.81,WSW,246,0.0,0.0,78,0.00,FEW,,0.00,628.0,WeatherDisplay:10.37,2013-06-27 14:09:00,
2013-06-27 09:14:00,80.1,72.2,29.81,WSW,245,3.5,3.5,77,0.00,FEW,,0.00,645.0,WeatherDisplay:10.37,2013-06-27 14:14:00,
2013-06-27 09:19:00,80.5,73.0,29.80,WSW,246,0.0,0.0,78,0.00,FEW,,0.00,656.0,WeatherDisplay:10.37,2013-06-27 14:19:00,
2013-06-27 09:24:00,80.8,72.9,29.80,WSW,245,3.5,3.5,77,0.00,FEW,,0.00,673.0,WeatherDisplay:10.37,2013-06-27 14:24:00,
2013-06-27 09:29:00,81.3,72.6,29.80,West,260,0.0,0.0,75,0.00,FEW,,0.00,689.0,WeatherDisplay:10.37,2013-06-27 14:29:00,
2013-06-27 09:34:00,81.7,73.0,29.80,West,260,0.0,0.0,75,0.00,FEW,,0.00,705.0,WeatherDisplay:10.37,2013-06-27 14:34:00,
2013-06-27 09:39:00,81.8,72.7,29.80,West,260,0.0,0.0,74,0.00,FEW,,0.00,710.0,WeatherDisplay:10.37,2013-06-27 14:39:00,
2013-06-27 09:44:00,82.2,73.1,29.80,WSW,257,5.8,5.8,74,0.00,FEW,,0.00,731.0,WeatherDisplay:10.37,2013-06-27 14:44:00,
2013-06-27 09:49:00,82.4,73.3,29.79,SW,223,5.8,5.8,74,0.00,FEW,,0.00,707.0,WeatherDisplay:10.37,2013-06-27 14:49:00,
2013-06-27 09:54:00,82.5,73.4,29.79,SW,234,3.5,3.5,74,0.00,FEW,,0.00,751.0,WeatherDisplay:10.37,2013-06-27 14:54:00,
2013-06-27 09:59:00,82.7,73.6,29.79,SW,229,4.6,4.6,74,0.00,FEW,,0.00,777.0,WeatherDisplay:10.37,2013-06-27 14:59:00,
2013-06-27 10:04:00,83.0,74.3,29.79,SW,230,0.0,0.0,75,0.00,CLR,,0.00,784.0,WeatherDisplay:10.37,2013-06-27 15:04:00,
2013-06-27 10:09:00,83.4,73.8,29.79,SW,233,3.5,3.5,73,0.00,CLR,,0.00,798.0,WeatherDisplay:10.37,2013-06-27 15:09:00,
2013-06-27 10:14:00,83.6,73.6,29.79,WSW,240,9.2,9.2,72,0.00,CLR,,0.00,775.0,WeatherDisplay:10.37,2013-06-27 15:14:00,
2013-06-27 10:19:00,83.7,73.7,29.80,West,267,4.6,4.6,72,0.00,FEW,,0.00,745.0,WeatherDisplay:10.37,2013-06-27 15:19:00,
2013-06-27 10:24:00,84.0,74.0,29.79,West,259,3.5,3.5,72,0.00,FEW,,0.00,788.0,WeatherDisplay:10.37,2013-06-27 15:24:00,
2013-06-27 10:29:00,84.3,74.3,29.79,West,261,0.0,0.0,72,0.00,FEW,,0.00,824.0,WeatherDisplay:10.37,2013-06-27 15:29:00,
2013-06-27 10:34:00,84.6,72.9,29.79,WSW,244,9.2,9.2,68,0.00,FEW,,0.00,840.0,WeatherDisplay:10.37,2013-06-27 15:34:00,
2013-06-27 10:39:00,85.0,74.5,29.79,WSW,258,1.2,0.0,71,0.00,FEW,,0.00,830.0,WeatherDisplay:10.37,2013-06-27 15:39:00,
2013-06-27 10:44:00,85.4,74.9,29.79,West,263,4.6,4.6,71,0.00,FEW,,0.00,844.0,WeatherDisplay:10.37,2013-06-27 15:44:00,
2013-06-27 10:49:00,85.5,73.7,29.79,West,265,5.8,5.8,68,0.00,FEW,,0.00,842.0,WeatherDisplay:10.37,2013-06-27 15:49:00,
2013-06-27 10:54:00,85.7,73.9,29.79,NW,317,3.5,3.5,68,0.00,FEW,,0.00,840.0,WeatherDisplay:10.37,2013-06-27 15:54:00,
2013-06-27 10:59:00,86.0,72.9,29.79,West,271,5.8,5.8,65,0.00,FEW,,0.00,868.0,WeatherDisplay:10.37,2013-06-27 15:59:00,
2013-06-27 11:04:00,86.0,71.5,29.79,WSW,258,10.4,10.4,62,0.00,FEW,,0.00,867.0,WeatherDisplay:10.37,2013-06-27 16:04:00,
2013-06-27 11:09:00,86.1,72.0,29.79,WNW,288,10.4,10.4,63,0.00,CLR,,0.00,928.0,WeatherDisplay:10.37,2013-06-27 16:09:00,
2013-06-27 11:14:00,86.3,71.7,29.79,West,275,4.6,4.6,62,0.00,CLR,,0.00,979.0,WeatherDisplay:10.37,2013-06-27 16:14:00,
2013-06-27 11:19:00,86.7,72.1,29.79,WNW,296,4.6,4.6,62,0.00,CLR,,0.00,782.0,WeatherDisplay:10.37,2013-06-27 16:19:00,
2013-06-27 11:24:00,87.1,72.0,29.79,NW,325,3.5,3.5,61,0.00,FEW,,0.00,701.0,WeatherDisplay:10.37,2013-06-27 16:24:00,
2013-06-27 11:29:00,87.4,71.3,29.80,WNW,290,1.2,1.2,59,0.00,SCT,,0.00,587.0,WeatherDisplay:10.37,2013-06-27 16:29:00,
2013-06-27 11:34:00,87.4,70.3,29.80,WSW,246,11.5,11.5,57,0.00,SCT,,0.00,526.0,WeatherDisplay:10.37,2013-06-27 16:34:00,
2013-06-27 11:39:00,87.2,70.6,29.80,West,262,1.2,0.0,58,0.00,BKN,,0.00,413.0,WeatherDisplay:10.37,2013-06-27 16:39:00,
2013-06-27 11:44:00,87.0,70.4,29.79,West,261,0.0,0.0,58,0.00,BKN,,0.00,564.0,WeatherDisplay:10.37,2013-06-27 16:44:00,
2013-06-27 11:49:00,87.1,72.5,29.79,West,262,0.0,0.0,62,0.00,BKN,,0.00,548.0,WeatherDisplay:10.37,2013-06-27 16:49:00,
2013-06-27 11:54:00,87.2,72.1,29.79,West,262,4.6,4.6,61,0.00,BKN,,0.00,563.0,WeatherDisplay:10.37,2013-06-27 16:54:00,
2013-06-27 11:59:00,87.3,73.2,29.79,South,191,4.6,4.6,63,0.00,SCT,,0.00,1130.0,WeatherDisplay:10.37,2013-06-27 16:59:00,
2013-06-27 12:04:00,87.3,72.7,29.79,WSW,241,6.0,6.0,62,0.00,SCT,,0.00,541.0,WeatherDisplay:10.37,2013-06-27 17:04:00,
2013-06-27 12:09:00,87.4,73.3,29.79,SW,230,6.9,6.9,63,0.00,SCT,,0.00,698.0,WeatherDisplay:10.37,2013-06-27 17:09:00,
2013-06-27 12:14:00,87.3,72.2,29.79,SW,229,9.2,9.2,61,0.00,SCT,,0.00,468.0,WeatherDisplay:10.37,2013-06-27 17:14:00,
2013-06-27 12:19:00,87.1,73.0,29.79,SSW,197,11.5,11.5,63,0.00,BKN,,0.00,464.0,WeatherDisplay:10.37,2013-06-27 17:19:00,
2013-06-27 12:24:00,87.1,73.0,29.80,SW,221,4.0,4.0,63,0.00,BKN,,0.00,585.0,WeatherDisplay:10.37,2013-06-27 17:24:00,
2013-06-27 12:29:00,87.0,73.3,29.79,SW,230,8.1,8.1,64,0.00,BKN,,0.00,512.0,WeatherDisplay:10.37,2013-06-27 17:29:00,
2013-06-27 12:34:00,86.8,73.2,29.80,SW,230,10.4,10.4,64,0.00,BKN,,0.00,513.0,WeatherDisplay:10.37,2013-06-27 17:34:00,
2013-06-27 12:39:00,86.8,73.6,29.80,WSW,241,4.0,4.0,65,0.00,BKN,,0.00,671.0,WeatherDisplay:10.37,2013-06-27 17:39:00,
2013-06-27 12:44:00,86.9,73.3,29.80,SW,235,9.2,9.2,64,0.00,SCT,,0.00,573.0,WeatherDisplay:10.37,2013-06-27 17:44:00,
2013-06-27 12:49:00,87.0,73.8,29.79,SW,219,9.2,9.2,65,0.00,SCT,,0.00,555.0,WeatherDisplay:10.37,2013-06-27 17:49:00,
2013-06-27 12:54:00,87.1,73.4,29.79,SW,227,6.9,6.9,64,0.00,SCT,,0.00,809.0,WeatherDisplay:10.37,2013-06-27 17:54:00,
2013-06-27 12:59:00,87.1,73.9,29.79,SW,230,6.9,6.9,65,0.00,SCT,,0.00,434.0,WeatherDisplay:10.37,2013-06-27 17:59:00,
2013-06-27 13:04:00,87.0,72.9,29.79,WSW,249,5.8,5.8,63,0.00,SCT,,0.00,898.0,WeatherDisplay:10.37,2013-06-27 18:04:00,
2013-06-27 13:09:00,87.1,73.0,29.79,WSW,245,6.9,6.9,63,0.00,SCT,,0.00,385.0,WeatherDisplay:10.37,2013-06-27 18:09:00,
2013-06-27 13:14:00,86.8,72.7,29.79,SW,234,8.1,8.1,63,0.00,BKN,,0.00,311.0,WeatherDisplay:10.37,2013-06-27 18:14:00,
2013-06-27 13:19:00,86.6,72.5,29.79,SW,231,6.9,6.9,63,0.00,BKN,,0.00,294.0,WeatherDisplay:10.37,2013-06-27 18:19:00,
2013-06-27 13:24:00,86.4,72.8,29.79,WSW,248,10.0,10.0,64,0.00,BKN,,0.00,362.0,WeatherDisplay:10.37,2013-06-27 18:24:00,
2013-06-27 13:29:00,86.4,73.2,29.79,West,260,5.0,5.0,65,0.00,BKN,,0.00,626.0,WeatherDisplay:10.37,2013-06-27 18:29:00,
2013-06-27 13:34:00,86.5,72.9,29.79,WSW,253,11.5,11.5,64,0.00,BKN,,0.00,512.0,WeatherDisplay:10.37,2013-06-27 18:34:00,
2013-06-27 13:39:00,86.4,72.3,29.79,WSW,253,11.5,11.5,63,0.00,BKN,,0.00,480.0,WeatherDisplay:10.37,2013-06-27 18:39:00,
2013-06-27 13:44:00,86.3,71.3,29.79,WSW,258,13.8,13.8,61,0.00,BKN,,0.00,703.0,WeatherDisplay:10.37,2013-06-27 18:44:00,
2013-06-27 13:50:00,86.5,71.5,29.79,West,264,10.4,10.4,61,0.00,SCT,,0.00,388.0,WeatherDisplay:10.37,2013-06-27 18:50:00,
2013-06-27 13:55:00,86.8,72.2,29.79,WSW,254,9.2,9.2,62,0.00,SCT,,0.00,1063.0,WeatherDisplay:10.37,2013-06-27 18:55:00,
2013-06-27 14:00:00,87.3,71.7,29.79,SSW,207,12.7,12.7,60,0.00,SCT,,0.00,946.0,WeatherDisplay:10.37,2013-06-27 19:00:00,
2013-06-27 14:05:00,87.4,71.8,29.79,WSW,253,12.7,12.7,60,0.00,FEW,,0.00,554.0,WeatherDisplay:10.37,2013-06-27 19:05:00,
2013-06-27 14:10:00,87.1,71.5,29.79,WSW,249,9.2,9.2,60,0.00,SCT,,0.00,452.0,WeatherDisplay:10.37,2013-06-27 19:10:00,
2013-06-27 14:15:00,86.9,71.8,29.78,WSW,249,10.4,10.4,61,0.00,BKN,,0.00,432.0,WeatherDisplay:10.37,2013-06-27 19:15:00,
2013-06-27 14:20:00,86.8,72.2,29.78,West,259,13.8,13.8,62,0.00,BKN,,0.00,492.0,WeatherDisplay:10.37,2013-06-27 19:20:00,
2013-06-27 14:25:00,86.6,72.0,29.78,WSW,251,14.0,14.0,62,0.00,BKN,,0.00,476.0,WeatherDisplay:10.37,2013-06-27 19:25:00,
2013-06-27 14:30:00,86.6,72.5,29.78,SW,220,16.1,16.1,63,0.00,BKN,,0.00,478.0,WeatherDisplay:10.37,2013-06-27 19:30:00,
2013-06-27 14:35:00,86.7,73.1,29.78,West,272,11.5,11.5,64,0.00,BKN,,0.00,557.0,WeatherDisplay:10.37,2013-06-27 19:35:00,
2013-06-27 14:40:00,86.7,72.1,29.78,WSW,256,13.8,13.8,62,0.00,BKN,,0.00,557.0,WeatherDisplay:10.37,2013-06-27 19:40:00,
2013-06-27 14:45:00,86.7,71.6,29.77,West,261,16.1,16.1,61,0.00,BKN,,0.00,364.0,WeatherDisplay:10.37,2013-06-27 19:45:00,
2013-06-27 14:50:00,86.7,71.2,29.78,SW,227,11.5,11.5,60,0.00,BKN,,0.00,355.0,WeatherDisplay:10.37,2013-06-27 19:50:00,
2013-06-27 14:55:00,86.5,71.5,29.77,WSW,248,10.4,10.4,61,0.00,BKN,,0.00,216.0,WeatherDisplay:10.37,2013-06-27 19:55:00,
2013-06-27 15:00:00,86.3,71.7,29.77,West,261,13.8,13.8,62,0.00,BKN,,0.00,297.0,WeatherDisplay:10.37,2013-06-27 20:00:00,
2013-06-27 15:05:00,86.1,72.0,29.77,SW,227,11.5,11.5,63,0.00,BKN,,0.00,338.0,WeatherDisplay:10.37,2013-06-27 20:05:00,
2013-06-27 15:10:00,86.0,71.9,29.77,West,265,5.8,5.8,63,0.00,BKN,,0.00,294.0,WeatherDisplay:10.37,2013-06-27 20:10:00,
2013-06-27 15:15:00,85.9,72.3,29.77,SW,227,9.2,9.2,64,0.00,BKN,,0.00,366.0,WeatherDisplay:10.37,2013-06-27 20:15:00,
2013-06-27 15:20:00,85.8,72.2,29.77,West,264,11.5,11.5,64,0.00,BKN,,0.00,374.0,WeatherDisplay:10.37,2013-06-27 20:20:00,
2013-06-27 15:25:00,86.1,73.4,29.77,SW,215,4.6,4.6,66,0.00,BKN,,0.00,976.0,WeatherDisplay:10.37,2013-06-27 20:25:00,
2013-06-27 15:30:00,86.9,73.3,29.77,WSW,241,9.2,9.2,64,0.00,SCT,,0.00,951.0,WeatherDisplay:10.37,2013-06-27 20:30:00,
2013-06-27 15:35:00,87.5,72.9,29.77,WSW,255,8.1,8.1,62,0.00,CLR,,0.00,925.0,WeatherDisplay:10.37,2013-06-27 20:35:00,
2013-06-27 15:40:00,87.5,71.9,29.76,SW,223,11.5,11.5,60,0.00,CLR,,0.00,800.0,WeatherDisplay:10.37,2013-06-27 20:40:00,
2013-06-27 15:47:00,87.5,71.4,29.76,WSW,252,13.8,13.8,59,0.00,CLR,,0.00,891.0,WeatherDisplay:10.37,2013-06-27 20:47:00,
2013-06-27 15:53:00,86.9,71.3,29.76,West,276,11.5,11.5,60,0.00,SCT,,0.00,332.0,WeatherDisplay:10.37,2013-06-27 20:53:00,
2013-06-27 15:58:00,86.3,70.3,29.76,NW,325,16.1,16.1,59,0.00,BKN,,0.00,353.0,WeatherDisplay:10.37,2013-06-27 20:58:00,
2013-06-27 16:03:00,86.2,70.7,29.76,West,281,5.8,5.8,60,0.00,SCT,,0.00,817.0,WeatherDisplay:10.37,2013-06-27 21:03:00,
2013-06-27 16:08:00,86.6,71.5,29.76,West,265,6.9,6.9,61,0.00,FEW,,0.00,779.0,WeatherDisplay:10.37,2013-06-27 21:08:00,
2013-06-27 16:14:00,87.1,71.5,29.76,WNW,284,11.5,11.5,60,0.00,FEW,,0.00,738.0,WeatherDisplay:10.37,2013-06-27 21:14:00,
2013-06-27 16:19:00,87.1,71.5,29.75,West,274,4.6,4.6,60,0.00,FEW,,0.00,726.0,WeatherDisplay:10.37,2013-06-27 21:19:00,
2013-06-27 16:24:00,87.0,70.9,29.75,SSE,161,10.4,10.4,59,0.00,FEW,,0.00,703.0,WeatherDisplay:10.37,2013-06-27 21:24:00,
2013-06-27 16:30:00,87.1,71.0,29.75,West,263,9.2,9.2,59,0.00,FEW,,0.00,410.0,WeatherDisplay:10.37,2013-06-27 21:30:00,
2013-06-27 16:35:00,86.7,70.7,29.75,WNW,295,15.0,15.0,59,0.00,SCT,,0.00,520.0,WeatherDisplay:10.37,2013-06-27 21:35:00,
2013-06-27 16:40:00,86.4,70.4,29.74,West,275,12.7,12.7,59,0.00,SCT,,0.00,668.0,WeatherDisplay:10.37,2013-06-27 21:40:00,
2013-06-27 16:45:00,86.4,69.9,29.74,West,262,17.3,17.3,58,0.00,FEW,,0.00,726.0,WeatherDisplay:10.37,2013-06-27 21:45:00,
2013-06-27 16:50:00,86.2,70.7,29.74,West,278,10.4,10.4,60,0.00,SCT,,0.00,167.0,WeatherDisplay:10.37,2013-06-27 21:50:00,
2013-06-27 16:56:00,86.2,71.2,29.74,WSW,252,4.6,4.6,61,0.00,SCT,,0.00,687.0,WeatherDisplay:10.37,2013-06-27 21:56:00,
2013-06-27 17:01:00,85.9,70.4,29.74,West,259,11.5,11.5,60,0.00,SCT,,0.00,255.0,WeatherDisplay:10.37,2013-06-27 22:01:00,
2013-06-27 17:06:00,85.7,71.2,29.74,West,271,4.6,0.0,62,0.00,BKN,,0.00,279.0,WeatherDisplay:10.37,2013-06-27 22:06:00,
2013-06-27 17:11:00,85.6,71.1,29.74,NW,318,6.9,6.9,62,0.00,BKN,,0.00,561.0,WeatherDisplay:10.37,2013-06-27 22:11:00,
2013-06-27 17:17:00,85.7,71.2,29.74,WSW,244,13.8,13.8,62,0.00,SCT,,0.00,527.0,WeatherDisplay:10.37,2013-06-27 22:17:00,
2013-06-27 17:22:00,85.9,71.4,29.74,WNW,284,12.7,12.7,62,0.00,FEW,,0.00,499.0,WeatherDisplay:10.37,2013-06-27 22:22:00,
2013-06-27 17:28:00,85.7,71.2,29.74,West,280,16.0,16.0,62,0.00,SCT,,0.00,482.0,WeatherDisplay:10.37,2013-06-27 22:28:00,
2013-06-27 17:33:00,85.5,70.5,29.74,West,275,11.5,11.5,61,0.00,SCT,,0.00,468.0,WeatherDisplay:10.37,2013-06-27 22:33:00,
2013-06-27 17:38:00,85.4,70.4,29.74,West,275,6.9,6.9,61,0.00,SCT,,0.00,452.0,WeatherDisplay:10.37,2013-06-27 22:38:00,
2013-06-27 17:43:00,85.7,70.7,29.74,West,281,1.2,3.1,61,0.00,SCT,,0.00,438.0,WeatherDisplay:10.37,2013-06-27 22:43:00,
2013-06-27 17:49:00,85.6,71.1,29.74,West,276,5.0,5.0,62,0.00,SCT,,0.00,415.0,WeatherDisplay:10.37,2013-06-27 22:49:00,
2013-06-27 17:54:00,85.6,70.6,29.74,WSW,244,10.4,10.4,61,0.00,SCT,,0.00,399.0,WeatherDisplay:10.37,2013-06-27 22:54:00,
2013-06-27 17:59:00,85.7,71.7,29.74,WSW,252,5.8,7.0,63,0.00,SCT,,0.00,383.0,WeatherDisplay:10.37,2013-06-27 22:59:00,
2013-06-27 18:04:00,85.8,71.7,29.74,WNW,286,6.9,6.9,63,0.00,SCT,,0.00,366.0,WeatherDisplay:10.37,2013-06-27 23:04:00,
2013-06-27 18:10:00,85.4,70.9,29.74,West,281,19.6,19.6,62,0.00,SCT,,0.00,357.0,WeatherDisplay:10.37,2013-06-27 23:10:00,
2013-06-27 18:15:00,84.8,70.3,29.74,WSW,258,13.8,13.8,62,0.00,SCT,,0.00,339.0,WeatherDisplay:10.37,2013-06-27 23:15:00,
2013-06-27 18:20:00,84.7,71.2,29.74,West,268,6.9,6.9,64,0.00,SCT,,0.00,315.0,WeatherDisplay:10.37,2013-06-27 23:20:00,
2013-06-27 18:26:00,84.6,71.1,29.73,NW,306,2.3,2.3,64,0.00,BKN,,0.00,53.0,WeatherDisplay:10.37,2013-06-27 23:26:00,
2013-06-27 18:31:00,84.5,71.0,29.73,WNW,292,4.6,4.6,64,0.00,BKN,,0.00,62.0,WeatherDisplay:10.37,2013-06-27 23:31:00,
2013-06-27 18:36:00,84.4,70.9,29.73,West,259,10.4,10.4,64,0.00,BKN,,0.00,105.0,WeatherDisplay:10.37,2013-06-27 23:36:00,
2013-06-27 18:41:00,84.3,71.2,29.73,WNW,296,9.2,9.2,65,0.00,BKN,,0.00,49.0,WeatherDisplay:10.37,2013-06-27 23:41:00,
2013-06-27 18:47:00,84.2,70.7,29.73,West,277,9.2,9.2,64,0.00,BKN,,0.00,40.0,WeatherDisplay:10.37,2013-06-27 23:47:00,
2013-06-27 18:52:00,84.0,71.0,29.73,WNW,284,9.2,9.2,65,0.00,BKN,,0.00,46.0,WeatherDisplay:10.37,2013-06-27 23:52:00,
2013-06-27 18:57:00,83.9,70.9,29.73,West,266,12.7,12.7,65,0.00,BKN,,0.00,65.0,WeatherDisplay:10.37,2013-06-27 23:57:00,
2013-06-27 19:02:00,83.7,70.7,29.73,WNW,290,6.9,6.9,65,0.00,BKN,,0.00,46.0,WeatherDisplay:10.37,2013-06-28 00:02:00,
2013-06-27 19:08:00,83.6,71.0,29.73,West,268,10.4,10.4,66,0.00,BKN,,0.00,47.0,WeatherDisplay:10.37,2013-06-28 00:08:00,
2013-06-27 19:14:00,83.6,71.5,29.73,West,265,10.4,10.4,67,0.00,BKN,,0.00,35.0,WeatherDisplay:10.37,2013-06-28 00:14:00,
2013-06-27 19:19:00,83.5,71.4,29.72,NNW,328,3.5,3.5,67,0.00,BKN,,0.00,35.0,WeatherDisplay:10.37,2013-06-28 00:19:00,
2013-06-27 19:24:00,83.3,71.2,29.73,West,273,9.2,9.2,67,0.00,BKN,,0.00,33.0,WeatherDisplay:10.37,2013-06-28 00:24:00,
2013-06-27 19:29:00,83.2,71.1,29.72,West,279,3.5,3.5,67,0.00,BKN,,0.00,32.0,WeatherDisplay:10.37,2013-06-28 00:29:00,
2013-06-27 19:34:00,83.0,71.3,29.72,WNW,288,6.0,6.0,68,0.00,BKN,,0.00,30.0,WeatherDisplay:10.37,2013-06-28 00:34:00,
2013-06-27 19:39:00,82.9,71.3,29.72,WNW,288,9.2,9.2,68,0.00,BKN,,0.00,28.0,WeatherDisplay:10.37,2013-06-28 00:39:00,
2013-06-27 19:44:00,82.7,71.1,29.73,WNW,290,0.0,1.1,68,0.00,BKN,,0.00,26.0,WeatherDisplay:10.37,2013-06-28 00:44:00,
2013-06-27 19:49:00,82.6,71.0,29.73,West,275,5.8,5.8,68,0.00,BKN,,0.00,25.0,WeatherDisplay:10.37,2013-06-28 00:49:00,
2013-06-27 19:55:00,82.5,70.9,29.73,WNW,291,3.5,3.5,68,0.00,BKN,,0.00,23.0,WeatherDisplay:10.37,2013-06-28 00:55:00,
2013-06-27 20:00:00,82.3,70.7,29.73,WNW,284,4.0,4.0,68,0.00,BKN,,0.00,21.0,WeatherDisplay:10.37,2013-06-28 01:00:00,
2013-06-27 20:05:00,82.2,70.6,29.73,WNW,291,9.2,9.2,68,0.00,BKN,,0.00,19.0,WeatherDisplay:10.37,2013-06-28 01:05:00,
2013-06-27 20:10:00,82.0,70.8,29.73,NW,310,3.5,3.5,69,0.00,BKN,,0.00,16.0,WeatherDisplay:10.37,2013-06-28 01:10:00,
2013-06-27 20:16:00,81.8,70.6,29.73,West,264,3.5,3.5,69,0.00,BKN,,0.00,14.0,WeatherDisplay:10.37,2013-06-28 01:16:00,
2013-06-27 20:21:00,81.6,70.9,29.73,NW,314,4.6,4.6,70,0.00,BKN,,0.00,11.0,WeatherDisplay:10.37,2013-06-28 01:21:00,
2013-06-27 20:27:00,81.4,70.7,29.73,NW,311,0.0,0.0,70,0.00,BKN,,0.00,9.0,WeatherDisplay:10.37,2013-06-28 01:27:00,
2013-06-27 20:32:00,81.2,70.9,29.73,NW,309,1.2,1.2,71,0.00,BKN,,0.00,5.0,WeatherDisplay:10.37,2013-06-28 01:32:00,
2013-06-27 20:38:00,81.0,70.7,29.73,WNW,299,0.0,0.0,71,0.00,SCT,,0.00,0.0,WeatherDisplay:10.37,2013-06-28 01:38:00,
2013-06-27 20:43:00,80.8,70.5,29.73,WNW,299,0.0,0.3,71,0.00,SCT,,0.00,0.0,WeatherDisplay:10.37,2013-06-28 01:43:00,
2013-06-27 20:48:00,80.6,69.9,29.73,North,360,11.5,11.5,70,0.00,SCT,,0.00,0.0,WeatherDisplay:10.37,2013-06-28 01:48:00,
2013-06-27 20:54:00,80.5,69.8,29.73,West,280,0.0,0.0,70,0.00,SCT,,0.00,0.0,WeatherDisplay:10.37,2013-06-28 01:54:00,
2013-06-27 20:59:00,80.4,69.7,29.73,West,280,3.5,0.0,70,0.00,SCT,,0.00,0.0,WeatherDisplay:10.37,2013-06-28 01:59:00,
2013-06-27 21:04:00,80.2,69.1,29.73,NW,313,0.0,0.5,69,0.00,SCT,,0.00,0.0,WeatherDisplay:10.37,2013-06-28 02:04:00,
2013-06-27 21:10:00,80.1,69.0,29.73,WNW,287,4.6,4.6,69,0.00,SCT,,0.00,0.0,WeatherDisplay:10.37,2013-06-28 02:10:00,
2013-06-27 21:15:00,80.0,68.1,29.73,NW,318,3.5,3.5,67,0.00,SCT,,0.00,0.0,WeatherDisplay:10.37,2013-06-28 02:15:00,
2013-06-27 21:20:00,79.9,68.0,29.74,NW,317,3.5,3.5,67,0.00,SCT,,0.00,0.0,WeatherDisplay:10.37,2013-06-28 02:20:00,
2013-06-27 21:25:00,79.8,67.4,29.74,NW,311,2.3,2.3,66,0.00,SCT,,0.00,0.0,WeatherDisplay:10.37,2013-06-28 02:25:00,
2013-06-27 21:30:00,79.7,67.3,29.74,NW,311,1.2,1.2,66,0.00,SCT,,0.00,0.0,WeatherDisplay:10.37,2013-06-28 02:30:00,
2013-06-27 21:35:00,79.7,67.3,29.74,NW,311,2.3,0.0,66,0.00,SCT,,0.00,0.0,WeatherDisplay:10.37,2013-06-28 02:35:00,
2013-06-27 21:40:00,79.5,66.7,29.74,NW,324,5.8,5.8,65,0.00,SCT,,0.00,0.0,WeatherDisplay:10.37,2013-06-28 02:40:00,
2013-06-27 21:46:00,79.4,65.7,29.75,WNW,300,5.8,5.8,63,0.00,SCT,,0.00,0.0,WeatherDisplay:10.37,2013-06-28 02:46:00,
2013-06-27 21:51:00,79.4,65.7,29.75,NNW,340,11.0,11.0,63,0.00,SCT,,0.00,0.0,WeatherDisplay:10.37,2013-06-28 02:51:00,
2013-06-27 21:56:00,79.2,65.1,29.74,NNW,333,3.5,3.5,62,0.00,SCT,,0.00,0.0,WeatherDisplay:10.37,2013-06-28 02:56:00,
2013-06-27 22:02:00,79.0,64.9,29.74,NW,311,0.0,0.0,62,0.00,SCT,,0.00,0.0,WeatherDisplay:10.37,2013-06-28 03:02:00,
2013-06-27 22:07:00,78.9,64.8,29.75,NW,315,1.2,0.0,62,0.00,SCT,,0.00,0.0,WeatherDisplay:10.37,2013-06-28 03:07:00,
2013-06-27 22:12:00,78.7,64.6,29.74,NNW,328,0.0,0.0,62,0.00,SCT,,0.00,0.0,WeatherDisplay:10.37,2013-06-28 03:12:00,
2013-06-27 22:17:00,78.5,64.9,29.75,NW,326,0.0,0.0,63,0.00,SCT,,0.00,0.0,WeatherDisplay:10.37,2013-06-28 03:17:00,
2013-06-27 22:23:00,78.3,64.7,29.75,NW,324,0.0,0.0,63,0.00,SCT,,0.00,0.0,WeatherDisplay:10.37,2013-06-28 03:23:00,
2013-06-27 22:28:00,78.1,64.5,29.75,NW,324,1.2,1.2,63,0.00,SCT,,0.00,0.0,WeatherDisplay:10.37,2013-06-28 03:28:00,
2013-06-27 22:33:00,77.9,64.3,29.75,NW,311,0.0,0.0,63,0.00,SCT,,0.00,0.0,WeatherDisplay:10.37,2013-06-28 03:33:00,
2013-06-27 22:38:00,77.7,64.1,29.75,NW,312,0.0,0.0,63,0.00,SCT,,0.00,0.0,WeatherDisplay:10.37,2013-06-28 03:38:00,
2013-06-27 22:44:00,77.6,64.0,29.75,WNW,303,0.0,0.0,63,0.00,SCT,,0.00,0.0,WeatherDisplay:10.37,2013-06-28 03:44:00,
2013-06-27 22:49:00,77.5,63.9,29.75,WNW,296,1.0,0.0,63,0.00,SCT,,0.00,0.0,WeatherDisplay:10.37,2013-06-28 03:49:00,
2013-06-27 22:54:00,77.4,63.8,29.75,WNW,302,0.0,0.0,63,0.00,SCT,,0.00,0.0,WeatherDisplay:10.37,2013-06-28 03:54:00,
2013-06-27 23:00:00,77.3,63.7,29.75,WNW,302,4.6,4.6,63,0.00,SCT,,0.00,0.0,WeatherDisplay:10.37,2013-06-28 04:00:00,
2013-06-27 23:01:00,77.3,63.7,29.75,WNW,302,4.6,4.6,63,0.00,SCT,,0.00,0.0,WeatherDisplay:10.37,2013-06-28 04:01:00,
2013-06-27 23:06:00,77.2,64.1,29.75,WNW,302,0.0,0.0,64,0.00,SCT,,0.00,0.0,WeatherDisplay:10.37,2013-06-28 04:06:00,
2013-06-27 23:11:00,77.0,63.9,29.75,WNW,300,5.8,5.8,64,0.00,SCT,,0.00,0.0,WeatherDisplay:10.37,2013-06-28 04:11:00,
2013-06-27 23:16:00,77.0,63.9,29.76,WNW,287,3.5,3.5,64,0.00,SCT,,0.00,0.0,WeatherDisplay:10.37,2013-06-28 04:16:00,
2013-06-27 23:21:00,77.1,63.5,29.76,WNW,285,3.5,3.5,63,0.00,SCT,,0.00,0.0,WeatherDisplay:10.37,2013-06-28 04:21:00,
2013-06-27 23:26:00,77.0,63.9,29.76,WNW,285,0.0,0.4,64,0.00,SCT,,0.00,0.0,WeatherDisplay:10.37,2013-06-28 04:26:00,
2013-06-27 23:31:00,76.9,63.8,29.76,WNW,285,0.0,0.0,64,0.00,SCT,,0.00,0.0,WeatherDisplay:10.37,2013-06-28 04:31:00,
2013-06-27 23:36:00,76.8,63.7,29.76,WNW,285,3.0,3.0,64,0.00,SCT,,0.00,0.0,WeatherDisplay:10.37,2013-06-28 04:36:00,
2013-06-27 23:41:00,76.7,63.6,29.76,WNW,292,4.6,0.0,64,0.00,SCT,,0.00,0.0,WeatherDisplay:10.37,2013-06-28 04:41:00,
2013-06-27 23:46:00,76.6,63.1,29.77,WNW,289,0.0,0.0,63,0.00,SCT,,0.00,0.0,WeatherDisplay:10.37,2013-06-28 04:46:00,
2013-06-27 23:51:00,76.6,63.1,29.77,WNW,302,3.5,0.0,63,0.00,SCT,,0.00,0.0,WeatherDisplay:10.37,2013-06-28 04:51:00,
2013-06-27 23:56:00,76.7,63.2,29.76,WNW,302,2.3,0.0,63,0.00,SCT,,0.00,0.0,WeatherDisplay:10.37,2013-06-28 04:56:00,